Terminal Aerodrome Forecast
Issued by NWS Kansas City/Pleasant Hill, MO

Home | Current Version | Previous Version | Text Only | Print | Product List | Glossary On
Versions: 1 2 3 4 5 6 7 8 9 10 11 12 13 14 15 16 17 18 19 20 21 22 23 24 25 26 27
000
FTUS43 KEAX 261700
TAFMCI
TAF
KMCI 261720Z 2618/2718 34012KT P6SM FEW035
     FM270000 36008KT P6SM OVC090
     FM270300 02007KT P6SM VCSH OVC040
      TEMPO 2704/2708 -RA OVC022
     FM271000 01006KT P6SM SCT040=

USA.gov is the U.S. government's official web portal to all federal, state and local government web resources and services.